Time;durP1;ratioP1;P1;durP2;ratioP2;P2;SDS_P1;SDS_P2;PMS_P1;PMS_P2;Temp;Humidity;BMP_temperature;BMP_pressure;BME280_temperature;BME280_humidity;BME280_pressure;Samples;Min_cycle;Max_cycle;Signal;HPM_P1;HPM_P2
2022/05/24 00:01:16;;;;;;;1.30;0.85;;;;;;;24.94;30.24;96208.38;5138095;27;20019;-28
2022/05/24 00:03:41;;;;;;;2.25;1.50;;;;;;;25.05;29.49;96211.72;5137983;27;20122;-28
2022/05/24 00:06:07;;;;;;;1.73;0.98;;;;;;;25.10;28.80;96212.88;5138013;27;20069;-28
2022/05/24 00:08:33;;;;;;;1.40;0.90;;;;;;;25.09;28.76;96210.66;5137951;27;20027;-29
2022/05/24 00:10:59;;;;;;;1.75;0.90;;;;;;;25.02;28.87;96209.25;5138314;27;20023;-28
2022/05/24 00:13:24;;;;;;;1.58;0.90;;;;;;;25.08;28.61;96209.91;5137957;27;20072;-29
2022/05/24 00:15:50;;;;;;;1.58;1.08;;;;;;;25.02;28.32;96206.47;5137749;27;20023;-29
2022/05/24 00:18:19;;;;;;;2.15;1.13;;;;;;;25.05;27.94;96199.88;5137799;27;20173;-29
2022/05/24 00:20:49;;;;;;;1.23;0.98;;;;;;;24.96;28.88;96198.25;5137674;27;20027;-29
2022/05/24 00:23:15;;;;;;;1.65;0.90;;;;;;;25.00;27.98;96200.69;5138261;27;20408;-28
2022/05/24 00:25:44;;;;;;;1.20;0.80;;;;;;;24.98;28.18;96195.66;5137742;27;20102;-29
2022/05/24 00:28:10;;;;;;;3.25;0.98;;;;;;;24.98;28.11;96200.47;5137444;27;20035;-30
2022/05/24 00:30:36;;;;;;;1.00;0.90;;;;;;;24.95;28.66;96204.31;5137622;27;20027;-28
2022/05/24 00:33:02;;;;;;;1.50;1.10;;;;;;;24.93;27.45;96198.53;5137451;27;20054;-28
2022/05/24 00:35:28;;;;;;;1.27;0.93;;;;;;;24.94;27.75;96200.78;5119038;27;20023;-27
2022/05/24 00:37:54;;;;;;;1.35;0.90;;;;;;;24.95;28.07;96201.53;5137821;27;20526;-29
2022/05/24 00:40:56;;;;;;;2.90;1.00;;;;;;;24.97;28.29;96185.84;5137360;27;20027;-28
2022/05/24 00:43:32;;;;;;;1.23;0.80;;;;;;;24.88;28.59;96191.00;5137259;27;20023;-28
2022/05/24 00:46:11;;;;;;;1.75;0.90;;;;;;;24.90;28.15;96192.00;5137195;27;20068;-28
2022/05/24 00:48:49;;;;;;;1.08;0.80;;;;;;;24.92;27.48;96185.91;5137268;27;20079;-28
2022/05/24 00:51:24;;;;;;;1.58;1.05;;;;;;;24.91;27.80;96182.41;5137163;27;20065;-29
2022/05/24 00:53:53;;;;;;;1.40;0.90;;;;;;;24.89;27.40;96181.41;5137128;27;20463;-28
2022/05/24 00:56:34;;;;;;;1.33;0.93;;;;;;;24.87;27.57;96178.41;5136822;27;20043;-28
2022/05/24 00:59:04;;;;;;;1.23;1.00;;;;;;;24.87;27.70;96176.41;5136030;27;20023;-28
2022/05/24 01:01:46;;;;;;;1.58;0.80;;;;;;;24.83;28.50;96169.69;5136883;27;20019;-29
2022/05/24 01:04:14;;;;;;;1.80;0.80;;;;;;;24.85;27.85;96167.13;5136941;27;20027;-28
2022/05/24 01:06:40;;;;;;;2.35;1.00;;;;;;;24.89;27.78;96165.53;5136925;27;20027;-29
2022/05/24 01:09:23;;;;;;;2.80;1.15;;;;;;;24.86;27.62;96158.25;5136884;27;20023;-28
2022/05/24 01:11:51;;;;;;;;;;;;;;;24.90;28.52;96167.03;5137071;27;20026;-29
2022/05/24 01:14:19;;;;;;;1.70;0.95;;;;;;;24.83;27.73;96172.44;5136749;27;19918;-30
2022/05/24 01:16:45;;;;;;;1.15;0.98;;;;;;;24.86;27.97;96165.81;5136520;27;20026;-28
2022/05/24 01:19:23;;;;;;;1.77;0.80;;;;;;;24.85;28.07;96165.06;5136481;27;20022;-28
2022/05/24 01:21:49;;;;;;;1.17;1.00;;;;;;;24.81;28.11;96167.44;5136434;27;20031;-28
2022/05/24 01:24:27;;;;;;;1.30;1.00;;;;;;;24.78;28.22;96164.94;5136787;27;20049;-29
2022/05/24 01:26:55;;;;;;;2.00;1.05;;;;;;;24.80;28.37;96170.72;5136641;27;20463;-28
2022/05/24 01:38:32;;;;;;;1.05;0.93;;;;;;;24.77;28.31;96163.44;5032961;28;20113;-28
2022/05/24 01:40:59;;;;;;;0.88;0.80;;;;;;;24.75;28.27;96163.22;5033013;28;20112;-29
2022/05/24 01:43:27;;;;;;;2.13;1.10;;;;;;;24.72;28.91;96165.06;5032888;28;20482;-29
2022/05/24 01:46:00;;;;;;;1.83;0.90;;;;;;;24.65;28.90;96160.84;5032698;28;20034;-28
2022/05/24 01:48:33;;;;;;;2.00;1.00;;;;;;;24.68;28.70;96162.56;5032879;28;20029;-28
2022/05/24 01:51:01;;;;;;;1.88;0.85;;;;;;;24.69;29.37;96166.84;5032846;28;20033;-29
2022/05/24 01:53:33;;;;;;;3.08;1.10;;;;;;;24.70;29.11;96165.56;5032851;28;20025;-29
2022/05/24 01:56:00;;;;;;;1.00;0.85;;;;;;;24.64;29.02;96167.66;5032347;28;20060;-28
2022/05/24 01:58:28;;;;;;;1.88;1.00;;;;;;;24.70;29.12;96165.56;5032737;28;20448;-28
2022/05/24 02:00:58;;;;;;;2.65;1.35;;;;;;;24.64;29.18;96162.13;5032661;28;20473;-28
2022/05/24 02:03:24;;;;;;;1.00;0.90;;;;;;;24.65;29.83;96179.50;5032730;28;20029;-29
2022/05/24 02:05:49;;;;;;;2.00;1.10;;;;;;;24.67;29.45;96166.63;5032374;28;20536;-28
2022/05/24 02:08:15;;;;;;;1.90;1.20;;;;;;;24.65;29.98;96169.16;5040641;27;20533;-29
2022/05/24 02:10:54;;;;;;;1.60;0.98;;;;;;;24.67;29.88;96172.16;5135480;27;20493;-31
2022/05/24 02:13:30;;;;;;;1.77;1.08;;;;;;;24.62;29.91;96164.66;5135429;27;20052;-30
2022/05/24 02:16:02;;;;;;;1.42;1.08;;;;;;;24.64;29.68;96162.13;5135321;27;20035;-28
2022/05/24 02:18:30;;;;;;;2.33;1.30;;;;;;;24.62;30.00;96164.66;5135513;27;20034;-29
2022/05/24 02:21:16;;;;;;;3.28;1.13;;;;;;;24.59;29.91;96159.44;5135249;27;20023;-29
2022/05/24 02:24:05;;;;;;;1.27;1.10;;;;;;;24.62;29.56;96153.56;5135049;27;20027;-29
2022/05/24 02:26:50;;;;;;;1.10;0.90;;;;;;;24.60;29.50;96156.13;5134991;27;20363;-28
2022/05/24 02:29:17;;;;;;;1.15;0.90;;;;;;;24.58;29.74;96149.63;5134961;27;20381;-30
2022/05/24 02:31:43;;;;;;;1.42;1.00;;;;;;;24.54;29.33;96147.16;5135117;27;20029;-28
2022/05/24 02:34:09;;;;;;;2.92;1.10;;;;;;;24.51;29.99;96142.66;5135079;27;20385;-29
2022/05/24 02:36:35;;;;;;;2.00;1.10;;;;;;;24.54;28.67;96141.59;5134972;27;20023;-28
2022/05/24 02:39:01;;;;;;;1.50;0.80;;;;;;;24.54;28.89;96146.41;5135055;27;20031;-28
2022/05/24 02:41:29;;;;;;;1.33;1.10;;;;;;;24.55;28.62;96140.34;5134938;27;20026;-28
2022/05/24 02:43:57;;;;;;;2.28;1.05;;;;;;;24.55;28.88;96143.09;5134951;27;20023;-28
2022/05/24 02:46:23;;;;;;;3.65;0.88;;;;;;;24.52;29.48;96146.94;5134739;27;20022;-29
2022/05/24 02:48:48;;;;;;;2.35;1.10;;;;;;;24.55;28.98;96140.34;5135001;27;20019;-28
2022/05/24 02:51:15;;;;;;;1.40;1.10;;;;;;;24.53;29.08;96142.88;5135284;27;20378;-28
2022/05/24 02:53:42;;;;;;;1.75;1.00;;;;;;;24.55;29.20;96145.13;5134677;27;20109;-28
2022/05/24 02:56:08;;;;;;;2.38;1.17;;;;;;;24.58;28.68;96147.59;5134586;27;20390;-28
2022/05/24 02:58:34;;;;;;;1.52;1.00;;;;;;;24.51;28.08;96142.66;5134542;27;20025;-29
2022/05/24 03:01:00;;;;;;;1.70;1.20;;;;;;;24.51;28.58;96137.09;5134708;27;20027;-28
2022/05/24 03:03:26;;;;;;;2.83;1.33;;;;;;;24.48;28.30;96131.88;5134540;27;20019;-28
2022/05/24 03:05:51;;;;;;;2.10;1.02;;;;;;;24.49;28.63;96123.03;5134534;27;20047;-28
2022/05/24 03:11:01;;;;;;;2.10;0.82;;;;;;;24.52;28.04;96135.84;5134760;27;20030;-28
2022/05/24 03:16:12;;;;;;;2.15;1.17;;;;;;;24.46;28.54;96135.19;5134475;27;20049;-28
2022/05/24 03:18:37;;;;;;;1.50;1.00;;;;;;;24.44;28.61;96134.94;5134291;28;20027;-28
2022/05/24 03:21:03;;;;;;;2.45;0.93;;;;;;;24.45;27.53;96144.03;5133869;27;20417;-28
2022/05/24 03:23:29;;;;;;;1.17;0.90;;;;;;;24.45;28.29;96139.22;5134315;28;20102;-28
2022/05/24 03:25:54;;;;;;;3.20;1.10;;;;;;;24.45;28.62;96150.31;5134352;28;20466;-28
2022/05/24 03:28:21;;;;;;;2.65;1.02;;;;;;;24.42;28.73;96150.59;5134352;28;20058;-28
2022/05/24 03:30:46;;;;;;;2.40;0.95;;;;;;;24.48;28.23;96149.25;5134449;28;20054;-29
2022/05/24 03:33:13;;;;;;;2.70;1.38;;;;;;;24.41;27.70;96146.34;5134526;28;20062;-28
2022/05/24 03:35:39;;;;;;;2.03;1.05;;;;;;;24.40;28.05;96145.59;5134262;28;20398;-28
2022/05/24 03:38:05;;;;;;;2.50;1.00;;;;;;;24.32;28.07;96147.47;5134129;28;20456;-28
2022/05/24 03:40:32;;;;;;;2.05;1.10;;;;;;;24.36;28.47;96142.34;5134382;28;20038;-28
2022/05/24 03:42:58;;;;;;;1.55;1.05;;;;;;;24.41;28.11;96133.22;5134077;28;20470;-28
2022/05/24 03:45:24;;;;;;;1.73;1.30;;;;;;;24.31;28.58;96134.88;5134147;28;20031;-29
2022/05/24 03:47:50;;;;;;;1.08;1.00;;;;;;;24.24;28.54;96136.22;5134286;28;20124;-29
2022/05/24 03:50:18;;;;;;;1.77;1.00;;;;;;;24.34;29.00;96133.84;5134120;28;20390;-29
2022/05/24 03:52:43;;;;;;;3.30;1.15;;;;;;;24.33;28.28;96135.13;5134091;28;20459;-28
2022/05/24 03:55:09;;;;;;;3.55;1.20;;;;;;;24.34;28.40;96142.16;5133999;28;20106;-28
2022/05/24 04:00:22;;;;;;;3.35;1.30;;;;;;;24.31;28.45;96137.66;5134582;28;20033;-28
2022/05/24 04:02:47;;;;;;;2.72;1.52;;;;;;;24.20;28.76;96137.78;5134094;28;20514;-28
2022/05/24 04:05:14;;;;;;;1.52;0.98;;;;;;;24.20;28.50;96132.25;5133745;28;20031;-28
2022/05/24 04:07:41;;;;;;;2.72;1.20;;;;;;;24.23;28.49;96134.00;5133971;28;20023;-28
2022/05/24 04:10:09;;;;;;;5.13;1.17;;;;;;;24.25;28.37;96136.97;5134068;28;20382;-28
2022/05/24 04:12:34;;;;;;;1.60;1.10;;;;;;;24.23;28.41;96145.09;5133574;28;20023;-28
2022/05/24 04:15:00;;;;;;;2.53;1.02;;;;;;;24.29;28.91;96142.97;5133693;28;20038;-27
2022/05/24 04:17:26;;;;;;;5.10;1.55;;;;;;;24.19;28.96;96133.50;5133165;28;20031;-29
2022/05/24 04:19:51;;;;;;;2.45;1.10;;;;;;;24.23;28.23;96139.53;5133114;28;20026;-28
2022/05/24 04:22:17;;;;;;;2.70;0.98;;;;;;;24.21;28.99;96140.03;5134067;28;20015;-28
2022/05/24 04:24:43;;;;;;;3.10;1.10;;;;;;;24.24;29.04;96146.56;5133755;28;20458;-28
2022/05/24 04:27:09;;;;;;;2.00;1.10;;;;;;;24.20;29.02;96148.88;5134117;28;20474;-28
2022/05/24 04:29:39;;;;;;;2.20;1.50;;;;;;;24.23;29.38;96142.31;5133086;28;20019;-29
2022/05/24 04:32:04;;;;;;;2.70;1.08;;;;;;;24.25;29.07;96140.50;5129533;27;20478;-28
2022/05/24 04:34:30;;;;;;;2.97;1.20;;;;;;;24.19;29.63;96133.50;5134856;27;20053;-29
2022/05/24 04:36:55;;;;;;;3.85;1.33;;;;;;;24.20;29.29;96140.56;5135392;27;20481;-29
2022/05/24 04:39:21;;;;;;;3.25;1.38;;;;;;;24.24;29.20;96149.31;5135374;27;20047;-28
2022/05/24 04:44:30;;;;;;;4.50;1.75;;;;;;;24.23;29.47;96147.84;5135321;27;20436;-29
2022/05/24 04:47:08;;;;;;;4.00;1.45;;;;;;;24.24;29.93;96146.56;5135113;27;20023;-28
2022/05/24 04:49:39;;;;;;;3.85;1.60;;;;;;;24.14;29.95;96148.19;5135250;27;20046;-28
2022/05/24 04:52:06;;;;;;;6.15;1.63;;;;;;;24.16;30.21;96156.72;5135055;27;20027;-28
2022/05/24 04:54:32;;;;;;;6.40;1.90;;;;;;;24.20;30.01;96154.41;5134550;27;20105;-29
2022/05/24 04:56:58;;;;;;;3.85;1.45;;;;;;;24.20;29.89;96146.09;5134626;27;20748;-29
2022/05/24 04:59:24;;;;;;;28.83;4.00;;;;;;;24.24;30.29;96146.56;5134758;27;20023;-30
2022/05/24 05:01:52;;;;;;;26.15;3.88;;;;;;;24.20;29.81;96146.84;5134904;27;20023;-28
2022/05/24 05:04:19;;;;;;;14.60;2.78;;;;;;;24.23;29.88;96153.41;5134906;27;20022;-28
2022/05/24 05:06:46;;;;;;;12.95;2.25;;;;;;;24.24;30.18;96149.31;5134263;27;20030;-29
2022/05/24 05:09:12;;;;;;;8.45;2.13;;;;;;;24.15;30.26;96144.13;5134647;27;20044;-30
2022/05/24 05:11:38;;;;;;;9.90;2.20;;;;;;;24.11;30.12;96138.88;5134656;27;20023;-28
2022/05/24 05:14:04;;;;;;;8.05;2.05;;;;;;;24.14;29.81;96139.88;5134729;27;20114;-28
2022/05/24 05:16:30;;;;;;;9.00;1.98;;;;;;;24.14;30.04;96143.38;5134563;27;20026;-28
2022/05/24 05:18:56;;;;;;;6.03;1.80;;;;;;;24.15;30.17;96142.13;5134176;27;20027;-28
2022/05/24 05:21:21;;;;;;;4.75;1.65;;;;;;;24.13;29.88;96138.38;5134434;27;20114;-28
2022/05/24 05:23:47;;;;;;;7.22;2.45;;;;;;;24.14;30.06;96150.94;5134206;27;20114;-28
2022/05/24 05:26:15;;;;;;;6.57;1.80;;;;;;;24.13;30.00;96146.69;5134339;27;20447;-29
2022/05/24 05:28:41;;;;;;;4.55;1.80;;;;;;;24.13;30.30;96147.44;5134428;27;20730;-28
2022/05/24 05:31:16;;;;;;;8.45;1.92;;;;;;;24.17;30.42;96152.69;5115502;27;20038;-29
2022/05/24 05:33:43;;;;;;;6.13;1.58;;;;;;;24.17;30.50;96155.44;5132884;27;20076;-28
2022/05/24 05:36:10;;;;;;;7.00;1.83;;;;;;;24.16;30.53;96156.72;5134177;27;20087;-28
2022/05/24 05:38:36;;;;;;;5.35;1.80;;;;;;;24.10;30.92;96165.13;5134230;27;20050;-29
2022/05/24 05:41:01;;;;;;;3.90;1.88;;;;;;;24.11;30.52;96168.63;5134220;27;20026;-29
2022/05/24 05:43:27;;;;;;;4.93;1.20;;;;;;;24.20;30.31;96174.56;5133405;27;20019;-28
2022/05/24 05:45:57;;;;;;;4.30;1.70;;;;;;;24.11;30.51;96168.63;5133981;27;20450;-28
2022/05/24 05:48:23;;;;;;;6.40;1.63;;;;;;;24.03;30.34;96167.72;5133838;27;20027;-30
2022/05/24 05:50:49;;;;;;;3.58;1.48;;;;;;;24.06;30.53;96163.91;5134085;27;20126;-28
2022/05/24 05:53:15;;;;;;;3.58;1.40;;;;;;;24.11;30.82;96171.41;5133986;27;20023;-29
2022/05/24 05:55:41;;;;;;;3.40;1.40;;;;;;;24.07;30.74;96165.41;5133725;27;20027;-28
2022/05/24 05:58:08;;;;;;;4.93;1.58;;;;;;;24.10;30.46;96164.38;5133555;27;20096;-28
2022/05/24 06:00:34;;;;;;;4.00;1.70;;;;;;;24.13;30.68;96175.13;5133680;27;20031;-28
2022/05/24 06:03:00;;;;;;;4.13;1.30;;;;;;;24.07;30.39;96168.91;5133756;27;20368;-29
2022/05/24 06:05:25;;;;;;;5.68;1.67;;;;;;;24.10;30.56;96172.69;5133562;27;20038;-28
2022/05/24 06:07:51;;;;;;;3.38;1.30;;;;;;;24.04;30.30;96183.81;5114909;27;20099;-28
2022/05/24 06:10:17;;;;;;;3.38;1.13;;;;;;;24.06;30.49;96180.53;5133560;27;20076;-29
2022/05/24 06:12:42;;;;;;;2.55;1.35;;;;;;;24.06;30.52;96177.75;5133331;27;20026;-29
2022/05/24 06:15:09;;;;;;;2.42;1.27;;;;;;;24.06;31.01;96172.22;5133495;27;20023;-29
2022/05/24 06:17:43;;;;;;;2.88;1.48;;;;;;;23.82;30.87;96184.06;5133123;27;20035;-28
2022/05/24 06:20:08;;;;;;;2.75;1.50;;;;;;;23.83;30.63;96172.47;5133443;27;20042;-28
2022/05/24 06:22:34;;;;;;;2.13;1.55;;;;;;;23.97;30.56;96179.63;5133283;27;20130;-28
2022/05/24 06:24:59;;;;;;;5.13;1.63;;;;;;;23.91;30.30;96176.16;5114710;27;20023;-29
2022/05/24 06:27:25;;;;;;;3.40;1.33;;;;;;;23.97;30.45;96174.09;5133307;27;20027;-29
2022/05/24 06:29:50;;;;;;;2.63;1.35;;;;;;;23.93;30.82;96179.16;5132960;27;20031;-28
2022/05/24 06:32:16;;;;;;;3.92;1.70;;;;;;;23.83;30.56;96177.25;5131255;27;20053;-28
2022/05/24 06:34:42;;;;;;;3.53;1.42;;;;;;;23.84;30.87;96185.06;5132996;27;20050;-28
2022/05/24 06:37:07;;;;;;;2.63;1.40;;;;;;;23.89;31.03;96178.69;5133051;27;20022;-29
2022/05/24 06:39:33;;;;;;;3.75;1.40;;;;;;;23.86;30.66;96170.69;5132785;27;20030;-29
2022/05/24 06:41:58;;;;;;;3.17;1.42;;;;;;;23.81;30.90;96172.25;5132748;27;20019;-28
2022/05/24 06:44:24;;;;;;;2.75;1.45;;;;;;;23.93;30.82;96187.47;5133044;27;20070;-29
2022/05/24 06:46:50;;;;;;;4.70;1.60;;;;;;;23.83;30.97;96191.13;5132855;27;20030;-28
2022/05/24 06:49:15;;;;;;;2.65;1.48;;;;;;;23.84;30.79;96200.94;5132874;27;20054;-27
2022/05/24 06:51:41;;;;;;;3.63;1.83;;;;;;;23.91;30.78;96198.31;5132760;27;20057;-28
2022/05/24 06:54:06;;;;;;;4.15;1.70;;;;;;;23.84;30.89;96198.91;5132407;27;20079;-28
2022/05/24 06:56:33;;;;;;;5.13;1.90;;;;;;;23.56;31.01;96184.59;5131761;27;20096;-28
2022/05/24 07:04:27;;;;;;;6.25;1.73;;;;;;;23.56;30.62;96190.13;5132572;27;20452;-28
2022/05/24 07:06:52;;;;;;;3.15;1.75;;;;;;;23.37;31.50;96194.81;5132327;27;20019;-28
2022/05/24 07:09:18;;;;;;;3.25;1.33;;;;;;;23.38;31.00;96196.31;5132581;27;20031;-28
2022/05/24 07:11:43;;;;;;;3.53;1.48;;;;;;;23.35;31.00;96191.81;5132485;27;20031;-28
2022/05/24 07:14:09;;;;;;;3.55;1.45;;;;;;;23.57;30.63;96200.69;5132314;27;20042;-28
2022/05/24 07:16:34;;;;;;;3.35;1.20;;;;;;;23.58;30.45;96185.59;5132347;27;20062;-29
2022/05/24 07:19:00;;;;;;;4.22;1.40;;;;;;;23.34;31.21;96188.31;5131952;27;20037;-28
2022/05/24 07:21:25;;;;;;;4.70;1.40;;;;;;;23.45;30.96;96188.19;5132244;27;20027;-29
2022/05/24 07:23:51;;;;;;;4.85;1.38;;;;;;;23.21;31.14;96180.63;5132287;27;20022;-29
2022/05/24 07:26:21;;;;;;;3.88;1.45;;;;;;;22.93;31.94;96186.38;5132079;27;20099;-27
2022/05/24 07:28:46;;;;;;;3.92;1.50;;;;;;;23.53;30.81;96191.91;5132221;27;20501;-29
2022/05/24 07:31:12;;;;;;;4.82;1.35;;;;;;;23.54;31.15;96187.13;5132020;27;20035;-28
2022/05/24 07:33:38;;;;;;;3.25;1.30;;;;;;;23.24;30.77;96182.34;5130661;27;20072;-28
2022/05/24 07:36:05;;;;;;;7.32;1.80;;;;;;;23.16;31.54;96195.25;5132334;27;20486;-28
2022/05/24 07:38:31;;;;;;;8.68;1.90;;;;;;;23.24;31.37;96198.94;5132219;27;20031;-28
2022/05/24 07:46:25;;;;;;;5.00;1.35;;;;;;;23.44;31.90;96213.63;5133614;27;20143;-28
2022/05/24 07:48:50;;;;;;;3.92;1.50;;;;;;;23.22;33.03;96209.03;5134296;27;20023;-27
2022/05/24 07:51:16;;;;;;;24.70;2.80;;;;;;;22.48;33.80;96213.53;5133363;27;20030;-26
2022/05/24 07:53:41;;;;;;;5.95;1.73;;;;;;;22.50;33.70;96226.84;5133982;27;20023;-29
2022/05/24 07:56:07;;;;;;;7.25;1.48;;;;;;;22.99;33.00;96204.94;5133908;27;20066;-30
2022/05/24 07:58:33;;;;;;;4.35;1.60;;;;;;;23.08;33.22;96226.75;5115797;28;20019;-29
2022/05/24 08:00:59;;;;;;;11.38;1.70;;;;;;;23.09;33.10;96219.94;5133862;27;20408;-29
2022/05/24 08:03:25;;;;;;;6.53;2.08;;;;;;;23.15;33.41;96218.63;5133731;27;20458;-29
2022/05/24 08:05:51;;;;;;;3.97;1.70;;;;;;;23.17;33.32;96221.63;5133747;27;20037;-29
2022/05/24 08:08:17;;;;;;;8.38;1.63;;;;;;;23.13;33.42;96204.56;5136620;27;20019;-29
2022/05/24 08:10:43;;;;;;;5.60;1.77;;;;;;;23.14;33.58;96219.91;5137720;27;20038;-29
2022/05/24 08:13:12;;;;;;;3.30;1.50;;;;;;;23.26;33.46;96231.63;5137745;27;20023;-28
2022/05/24 08:15:38;;;;;;;8.48;1.52;;;;;;;23.42;33.51;96213.38;5137933;27;20110;-28
2022/05/24 08:18:04;;;;;;;6.40;1.40;;;;;;;23.28;33.82;96212.50;5137565;27;20107;-29
2022/05/24 08:20:30;;;;;;;4.40;1.35;;;;;;;23.22;33.86;96207.03;5137729;27;20043;-29
2022/05/24 08:22:56;;;;;;;8.60;1.30;;;;;;;23.35;33.90;96197.34;5137669;27;20381;-30
2022/05/24 08:25:22;;;;;;;6.85;1.80;;;;;;;23.40;33.44;96186.22;5119192;27;20019;-28
2022/05/24 08:27:47;;;;;;;2.97;1.65;;;;;;;23.38;33.49;96197.06;5137460;27;20382;-28
2022/05/24 08:30:16;;;;;;;3.78;1.40;;;;;;;23.52;33.48;96189.66;5137400;27;20110;-29
2022/05/24 08:32:42;;;;;;;5.82;1.50;;;;;;;23.14;34.57;96172.88;5137745;27;20080;-30
2022/05/24 08:35:11;;;;;;;5.22;1.60;;;;;;;23.22;34.50;96179.34;5137280;27;20041;-28
2022/05/24 08:37:38;;;;;;;3.38;1.65;;;;;;;23.48;34.09;96173.34;5137495;27;20075;-28
2022/05/24 08:40:04;;;;;;;5.90;2.13;;;;;;;23.34;34.44;96166.16;5137330;27;20027;-28
2022/05/24 08:42:52;;;;;;;17.63;2.65;;;;;;;23.37;34.10;96156.09;5137304;27;20067;-28
2022/05/24 08:48:55;;;;;;;20.42;2.40;;;;;;;23.55;34.15;96170.00;5137379;27;20033;-28
2022/05/24 08:51:28;;;;;;;15.73;2.35;;;;;;;23.55;33.91;96177.56;5100207;27;20045;-29
2022/05/24 08:54:21;;;;;;;11.30;2.50;;;;;;;23.53;34.29;96191.91;5137038;27;20382;-28
2022/05/24 08:56:58;;;;;;;19.48;2.72;;;;;;;23.58;34.12;96215.28;5136766;27;20063;-29
2022/05/24 08:59:43;;;;;;;10.75;2.17;;;;;;;23.53;34.47;96224.38;5136938;27;20095;-28
2022/05/24 09:02:09;;;;;;;7.95;1.67;;;;;;;23.47;34.96;96231.97;5137303;27;20019;-28
2022/05/24 09:04:35;;;;;;;11.07;2.10;;;;;;;23.52;34.64;96218.09;5136754;27;20025;-28
2022/05/24 09:07:19;;;;;;;12.32;2.20;;;;;;;23.32;34.89;96212.97;5136787;27;20019;-28
2022/05/24 09:10:06;;;;;;;10.80;1.88;;;;;;;23.40;34.77;96230.50;5136714;27;20019;-28
2022/05/24 09:12:37;;;;;;;5.53;2.13;;;;;;;23.63;34.80;96212.44;5136743;27;20493;-28
2022/05/24 09:15:16;;;;;;;6.93;1.90;;;;;;;23.69;34.40;96214.41;5136684;27;20459;-28
2022/05/24 09:18:00;;;;;;;7.03;2.00;;;;;;;23.60;35.26;96216.28;5136523;27;20058;-28
2022/05/24 09:20:42;;;;;;;8.45;1.83;;;;;;;23.19;36.81;96196.97;5135741;27;20023;-27
2022/05/24 09:23:26;;;;;;;8.00;1.95;;;;;;;23.00;37.81;96209.94;5136632;27;20027;-28
2022/05/24 09:26:02;;;;;;;7.70;2.00;;;;;;;22.87;38.44;96196.00;5118086;27;20019;-27
2022/05/24 09:28:56;;;;;;;3.53;1.45;;;;;;;22.98;38.95;96220.78;5136214;27;20026;-27
2022/05/24 09:31:30;;;;;;;8.52;2.00;;;;;;;23.06;39.01;96199.59;5128327;27;20077;-28
2022/05/24 09:34:07;;;;;;;33.95;23.98;;;;;;;22.98;39.23;96211.75;5136428;27;20030;-27
2022/05/24 09:36:41;;;;;;;45.35;30.38;;;;;;;22.93;39.29;96210.50;5136214;27;20050;-27
2022/05/24 09:39:21;;;;;;;21.15;12.00;;;;;;;23.11;38.97;96198.06;5136131;27;20068;-28
2022/05/24 09:42:00;;;;;;;15.45;6.95;;;;;;;22.98;39.79;96192.38;5136097;27;20471;-27
2022/05/24 09:44:29;;;;;;;17.13;3.20;;;;;;;22.85;39.86;96195.75;5134355;27;20463;-27
2022/05/24 09:46:55;;;;;;;8.25;1.90;;;;;;;22.83;39.65;96189.97;5134969;27;20031;-27
2022/05/24 09:49:20;;;;;;;4.70;1.80;;;;;;;22.93;39.65;96189.13;5136067;27;20080;-27
2022/05/24 09:51:46;;;;;;;5.85;1.85;;;;;;;23.08;39.95;96210.91;5136200;27;20362;-27
2022/05/24 09:54:20;;;;;;;8.38;2.08;;;;;;;23.11;39.62;96190.53;5135828;27;20023;-29
2022/05/24 09:57:04;;;;;;;8.00;1.80;;;;;;;23.42;39.41;96191.25;5135780;27;20074;-30
2022/05/24 09:59:30;;;;;;;4.30;1.67;;;;;;;23.60;38.71;96196.13;5113632;27;20023;-29
2022/05/24 10:01:56;;;;;;;7.70;1.88;;;;;;;23.71;38.39;96200.81;5112969;28;20038;-29
2022/05/24 10:04:25;;;;;;;5.95;1.73;;;;;;;23.81;37.98;96199.94;5094571;28;20023;-29
2022/05/24 10:06:53;;;;;;;3.97;2.05;;;;;;;23.86;38.01;96210.19;5112931;28;20064;-28
2022/05/24 10:09:19;;;;;;;5.05;2.30;;;;;;;23.83;38.17;96219.56;5112635;28;20081;-29
2022/05/24 10:11:55;;;;;;;5.32;1.60;;;;;;;23.78;37.96;96200.22;5112992;28;20023;-29
2022/05/24 10:14:58;;;;;;;8.15;1.90;;;;;;;23.88;37.53;96204.88;5112830;28;20069;-29
2022/05/24 10:17:50;;;;;;;8.07;2.03;;;;;;;23.82;37.66;96211.75;5112879;28;20103;-30
2022/05/24 10:20:40;;;;;;;6.90;2.17;;;;;;;23.96;37.33;96227.97;5112824;28;20039;-29
2022/05/24 10:23:10;;;;;;;6.13;1.95;;;;;;;23.85;37.47;96208.72;5112434;28;20083;-29
2022/05/24 10:25:55;;;;;;;5.13;1.95;;;;;;;23.85;37.06;96197.63;5112666;28;20063;-29
2022/05/24 10:28:39;;;;;;;5.78;1.80;;;;;;;23.91;37.25;96234.31;5112049;28;20016;-29
2022/05/24 10:31:34;;;;;;;5.57;1.75;;;;;;;23.86;37.20;96201.88;5112627;28;20023;-30
2022/05/24 10:38:17;;;;;;;2.75;1.70;;;;;;;23.95;37.01;96201.53;5112690;28;20151;-30
2022/05/24 10:40:13;;;;;;;4.65;1.90;;;;;;;23.88;37.45;96193.81;5111851;28;20050;-29
2022/05/24 10:42:52;;;;;;;6.53;1.77;;;;;;;23.80;37.65;96198.44;5110279;28;20084;-29
2022/05/24 10:45:23;;;;;;;6.72;2.42;;;;;;;23.90;37.14;96198.81;5111973;28;20023;-28
2022/05/24 10:48:07;;;;;;;6.82;2.28;;;;;;;23.90;37.26;96227.28;5112369;28;20030;-28
2022/05/24 10:50:52;;;;;;;3.75;2.03;;;;;;;23.93;37.40;96193.00;5125190;27;20038;-28
2022/05/24 10:53:27;;;;;;;5.95;2.00;;;;;;;23.86;37.31;96201.88;5134978;27;20023;-28
2022/05/24 10:56:06;;;;;;;6.97;2.33;;;;;;;23.92;37.57;96199.81;5134492;27;20447;-28
2022/05/24 10:58:36;;;;;;;8.45;2.10;;;;;;;23.87;37.59;96186.75;5134545;27;20050;-30
2022/05/24 11:01:25;;;;;;;4.22;1.70;;;;;;;23.89;38.87;96192.53;5134625;27;20087;-28
2022/05/24 11:03:57;;;;;;;5.03;2.03;;;;;;;23.90;37.73;96207.13;5134877;27;20558;-29
2022/05/24 11:06:44;;;;;;;5.47;2.03;;;;;;;24.05;37.79;96215.03;5134569;27;20467;-28
2022/05/24 11:09:21;;;;;;;6.07;2.10;;;;;;;23.98;37.83;96214.34;5134529;27;20371;-30
2022/05/24 11:12:01;;;;;;;10.35;2.45;;;;;;;23.90;38.07;96207.13;5135001;27;20033;-28
2022/05/24 11:14:42;;;;;;;6.18;2.20;;;;;;;24.01;38.25;96223.63;5134672;27;20387;-29
2022/05/24 11:17:12;;;;;;;4.55;2.17;;;;;;;24.18;37.80;96215.13;5134676;27;20030;-28
2022/05/24 11:19:44;;;;;;;4.30;2.10;;;;;;;24.13;38.16;96219.47;5134632;27;20471;-28
2022/05/24 11:22:20;;;;;;;11.00;2.70;;;;;;;23.99;38.76;96199.22;5134489;28;20023;-28
2022/05/24 11:24:51;;;;;;;4.05;2.10;;;;;;;24.02;38.71;96191.13;5115863;28;20471;-29
2022/05/24 11:27:26;;;;;;;5.25;2.97;;;;;;;24.03;38.61;96192.63;5134643;28;20038;-29
2022/05/24 11:29:57;;;;;;;6.13;2.42;;;;;;;24.13;38.69;96188.97;5116031;28;20031;-28
2022/05/24 11:32:51;;;;;;;6.57;2.15;;;;;;;24.04;39.24;96177.53;5134647;28;20431;-28
2022/05/24 11:35:19;;;;;;;9.70;2.40;;;;;;;24.12;38.93;96175.66;5112391;28;20031;-29
2022/05/24 11:37:52;;;;;;;6.75;2.17;;;;;;;24.16;39.32;96178.88;5134298;28;20223;-28
2022/05/24 11:40:39;;;;;;;4.82;1.90;;;;;;;24.13;39.54;96191.75;5134379;28;20030;-29
2022/05/24 11:43:43;;;;;;;6.88;1.90;;;;;;;24.13;39.63;96180.66;5136757;27;20079;-28
2022/05/24 11:46:33;;;;;;;5.30;2.30;;;;;;;24.13;39.88;96179.91;5099023;27;20089;-28
2022/05/24 11:49:03;;;;;;;4.55;1.90;;;;;;;24.15;39.79;96177.38;5138123;27;20015;-29
2022/05/24 11:51:34;;;;;;;6.32;1.80;;;;;;;24.21;39.42;96178.81;5138345;27;20470;-30
2022/05/24 11:54:02;;;;;;;3.35;2.00;;;;;;;24.22;39.57;96168.50;5138629;27;20037;-29
2022/05/24 11:56:29;;;;;;;6.03;1.92;;;;;;;24.25;39.63;96159.13;5138049;27;20051;-28
2022/05/24 11:59:06;;;;;;;4.47;1.98;;;;;;;24.31;39.79;96168.88;5137985;27;20066;-28
2022/05/24 12:01:39;;;;;;;6.95;2.10;;;;;;;24.33;40.33;96179.47;5138180;27;20076;-29
2022/05/24 12:10:05;;;;;;;9.80;2.17;;;;;;;24.25;41.34;96164.69;5137972;27;20022;-29
2022/05/24 12:12:55;;;;;;;4.45;1.90;;;;;;;24.31;40.73;96174.44;5137946;27;20098;-28
2022/05/24 12:15:22;;;;;;;3.35;1.98;;;;;;;24.23;41.34;96159.66;5137879;27;20098;-28
2022/05/24 12:18:12;;;;;;;6.50;2.25;;;;;;;24.30;41.07;96161.84;5138152;27;20027;-28
2022/05/24 12:20:37;;;;;;;4.50;1.83;;;;;;;24.25;41.23;96159.13;5131961;27;20035;-28
2022/05/24 12:23:09;;;;;;;5.38;2.22;;;;;;;24.23;41.54;96159.66;5114981;28;20020;-28
2022/05/24 12:25:51;;;;;;;3.05;1.77;;;;;;;24.32;40.71;96158.56;5128030;27;20030;-31
2022/05/24 12:28:18;;;;;;;5.65;2.17;;;;;;;24.35;41.70;96160.28;5135510;27;20031;-28
2022/05/24 12:30:45;;;;;;;6.18;1.90;;;;;;;24.30;42.14;96161.09;5135370;27;20015;-28
2022/05/24 12:33:25;;;;;;;6.03;2.20;;;;;;;24.41;41.77;96162.97;5135260;27;20114;-28